Time;durP1;ratioP1;P1;durP2;ratioP2;P2;SDS_P1;SDS_P2;PMS_P1;PMS_P2;Temp;Humidity;BMP_temperature;BMP_pressure;BME280_temperature;BME280_humidity;BME280_pressure;Samples;Min_cycle;Max_cycle;Signal;HPM_P1;HPM_P2
2023/04/02 00:01:25;;;;;;;1.40;0.63;;;;;;;9.88;67.52;94821.13;6124402;23;20180;-86
2023/04/02 00:04:23;;;;;;;0.70;0.60;;;;;;;9.75;67.92;94827.00;6117398;23;20179;-84
2023/04/02 00:06:53;;;;;;;1.17;0.63;;;;;;;9.70;68.11;94822.41;6034101;23;20185;-86
2023/04/02 00:09:40;;;;;;;0.60;0.60;;;;;;;9.74;68.04;94825.41;6105233;23;20221;-87
2023/04/02 00:12:18;;;;;;;1.07;0.90;;;;;;;9.76;68.29;94827.78;6117676;23;20186;-86
2023/04/02 00:14:53;;;;;;;1.10;0.60;;;;;;;9.76;68.13;94823.44;6125988;23;20172;-88
2023/04/02 00:17:22;;;;;;;0.87;0.70;;;;;;;9.80;67.99;94822.09;6131867;23;20163;-87
2023/04/02 00:19:57;;;;;;;0.80;0.70;;;;;;;9.84;67.82;94823.28;6130703;23;20206;-88
2023/04/02 00:22:27;;;;;;;0.60;0.60;;;;;;;9.73;68.08;94823.03;6131559;23;20299;-86
2023/04/02 00:24:55;;;;;;;0.80;0.70;;;;;;;9.75;68.03;94823.63;6131465;23;20180;-87
2023/04/02 00:27:22;;;;;;;0.80;0.80;;;;;;;9.72;68.13;94829.16;6128566;23;20230;-86
2023/04/02 00:29:52;;;;;;;0.70;0.70;;;;;;;9.74;68.24;94825.41;6127854;23;20210;-88
2023/04/02 00:32:38;;;;;;;1.27;0.70;;;;;;;9.72;68.09;94834.28;6130239;23;20176;-86
2023/04/02 00:35:11;;;;;;;0.77;0.77;;;;;;;9.72;68.02;94834.28;6131077;23;20164;-86
2023/04/02 00:37:41;;;;;;;0.87;0.60;;;;;;;9.69;68.26;94840.59;6131100;23;20160;-85
2023/04/02 00:40:18;;;;;;;0.77;0.60;;;;;;;9.76;68.21;94838.06;6131839;23;20280;-85
2023/04/02 00:42:46;;;;;;;0.60;0.60;;;;;;;9.85;67.49;94837.72;6130800;23;20186;-86
2023/04/02 00:45:21;;;;;;;0.97;0.77;;;;;;;9.84;67.49;94845.63;6131488;23;20174;-86
2023/04/02 00:47:48;;;;;;;0.93;0.57;;;;;;;9.73;67.68;94838.44;6129510;23;20214;-86
2023/04/02 00:50:26;;;;;;;0.53;0.53;;;;;;;9.77;67.85;94847.38;6132633;23;20189;-87
2023/04/02 00:52:54;;;;;;;0.60;0.60;;;;;;;9.71;68.02;94846.34;6131550;23;20553;-87
2023/04/02 00:55:24;;;;;;;1.10;0.70;;;;;;;9.69;67.83;94843.97;6131592;23;20171;-86
2023/04/02 00:57:52;;;;;;;0.60;0.60;;;;;;;9.69;67.81;94843.97;6130581;23;20258;-87
2023/04/02 01:00:28;;;;;;;0.90;0.60;;;;;;;9.67;68.04;94847.69;6131590;23;20670;-87
2023/04/02 01:03:27;;;;;;;0.70;0.70;;;;;;;9.60;68.43;94849.44;6130665;23;20186;-86
2023/04/02 01:06:01;;;;;;;1.07;0.70;;;;;;;9.64;68.13;94850.63;6130262;23;20195;-87
2023/04/02 01:08:39;;;;;;;0.93;0.60;;;;;;;9.69;68.11;94846.53;6130210;23;20241;-87
2023/04/02 01:11:18;;;;;;;1.10;0.77;;;;;;;9.70;68.02;94847.31;6131712;23;20166;-87
2023/04/02 01:13:52;;;;;;;0.50;0.50;;;;;;;9.71;67.77;94848.91;6130730;23;20164;-87
2023/04/02 01:16:30;;;;;;;0.53;0.53;;;;;;;9.68;68.31;94850.09;6131744;23;20164;-87
2023/04/02 01:19:12;;;;;;;0.80;0.80;;;;;;;9.66;67.96;94851.25;6131244;23;20199;-85
2023/04/02 01:21:52;;;;;;;0.73;0.63;;;;;;;9.65;68.08;94849.66;6131633;23;20191;-87
2023/04/02 01:24:27;;;;;;;1.33;0.77;;;;;;;9.69;68.11;94843.16;6131822;23;20164;-88
2023/04/02 01:27:07;;;;;;;0.70;0.70;;;;;;;9.72;68.08;94842.78;6130015;23;20186;-87
2023/04/02 01:29:39;;;;;;;0.90;0.60;;;;;;;9.70;68.12;94845.56;6129530;23;20225;-86
2023/04/02 01:32:07;;;;;;;0.83;0.77;;;;;;;9.63;68.39;94846.47;6129933;23;20638;-86
2023/04/02 01:34:39;;;;;;;1.37;0.70;;;;;;;9.62;68.61;94853.41;6130759;23;20183;-87
2023/04/02 01:37:21;;;;;;;0.80;0.80;;;;;;;9.70;68.38;94845.56;6130260;23;20164;-86
2023/04/02 01:40:14;;;;;;;1.63;0.80;;;;;;;9.73;68.26;94854.66;6129952;23;20200;-87
2023/04/02 01:42:49;;;;;;;0.57;0.50;;;;;;;9.71;67.97;94859.19;6128646;23;20187;-86
2023/04/02 01:45:20;;;;;;;0.70;0.60;;;;;;;9.71;68.38;94864.34;6127983;23;20210;-87
2023/04/02 01:47:47;;;;;;;1.70;0.67;;;;;;;9.69;67.99;94866.31;6127566;23;20256;-87
2023/04/02 01:50:22;;;;;;;1.57;0.80;;;;;;;9.65;68.54;94862.50;6126862;23;20681;-86
2023/04/02 01:52:52;;;;;;;0.60;0.60;;;;;;;9.67;68.28;94875.97;6128674;23;20159;-86
2023/04/02 01:55:24;;;;;;;0.60;0.60;;;;;;;9.62;68.72;94873.97;6129408;23;20184;-85
2023/04/02 01:57:53;;;;;;;0.73;0.53;;;;;;;9.59;68.57;94869.22;6129622;23;20164;-86
2023/04/02 02:00:21;;;;;;;1.17;0.70;;;;;;;9.58;68.65;94871.97;6129646;23;20175;-86
2023/04/02 02:02:51;;;;;;;0.53;0.53;;;;;;;9.64;68.71;94874.56;6127581;23;20194;-85
2023/04/02 02:05:21;;;;;;;0.83;0.57;;;;;;;9.61;68.67;94874.19;6129947;23;20510;-86
2023/04/02 02:07:49;;;;;;;0.57;0.57;;;;;;;9.68;68.60;94877.56;6129911;23;20211;-86
2023/04/02 02:10:18;;;;;;;0.50;0.50;;;;;;;9.73;68.56;94875.22;6129830;23;20210;-86
2023/04/02 02:12:46;;;;;;;0.60;0.60;;;;;;;9.73;68.55;94882.94;6129833;23;20179;-87
2023/04/02 02:15:16;;;;;;;0.60;0.60;;;;;;;9.73;68.55;94884.72;6129919;23;20176;-87
2023/04/02 02:17:44;;;;;;;1.47;0.70;;;;;;;9.75;68.48;94888.69;6129310;23;20175;-85
2023/04/02 02:20:12;;;;;;;1.70;0.63;;;;;;;9.76;68.51;94890.28;6129360;23;20203;-87
2023/04/02 02:22:43;;;;;;;0.77;0.60;;;;;;;9.79;68.39;94891.69;6129641;23;20175;-85
2023/04/02 02:25:13;;;;;;;1.43;0.90;;;;;;;9.81;68.28;94898.22;6129258;23;20775;-86
2023/04/02 02:27:58;;;;;;;0.50;0.50;;;;;;;9.82;68.04;94899.00;6128745;23;20199;-87
2023/04/02 02:30:30;;;;;;;0.70;0.70;;;;;;;9.83;67.94;94898.00;6129548;23;20218;-87
2023/04/02 02:33:03;;;;;;;0.70;0.60;;;;;;;9.77;67.82;94899.59;6131251;23;20183;-86
2023/04/02 02:35:36;;;;;;;1.00;0.67;;;;;;;9.73;68.46;94900.13;6128782;23;20170;-88
2023/04/02 02:38:25;;;;;;;0.70;0.60;;;;;;;9.63;69.20;94908.16;6128474;23;20167;-85
2023/04/02 02:40:56;;;;;;;1.03;0.60;;;;;;;9.60;68.81;94899.06;6128935;23;20171;-86
2023/04/02 02:43:27;;;;;;;0.60;0.60;;;;;;;9.68;68.35;94908.41;6130637;23;20197;-87
2023/04/02 02:45:56;;;;;;;1.27;0.70;;;;;;;9.63;68.90;94908.97;6131860;23;20219;-88
2023/04/02 02:48:36;;;;;;;1.00;0.60;;;;;;;9.58;68.83;94910.53;6129826;23;20203;-87
2023/04/02 02:51:09;;;;;;;0.97;0.70;;;;;;;9.49;69.17;94904.72;6130829;23;20164;-86
2023/04/02 02:53:46;;;;;;;0.60;0.60;;;;;;;9.55;69.02;94921.16;6130423;23;20666;-86
2023/04/02 02:56:13;;;;;;;1.73;0.70;;;;;;;9.53;69.03;94918.00;6129576;23;20164;-87
2023/04/02 02:58:40;;;;;;;0.60;0.60;;;;;;;9.54;68.82;94919.56;6129509;23;20202;-87
2023/04/02 03:01:10;;;;;;;1.23;0.90;;;;;;;9.59;68.79;94920.63;6129837;23;20257;-86
2023/04/02 03:03:38;;;;;;;0.50;0.50;;;;;;;9.58;68.67;94919.03;6130560;23;20175;-87
2023/04/02 03:06:10;;;;;;;0.60;0.60;;;;;;;9.60;68.52;94924.78;6131306;23;20989;-87
2023/04/02 03:08:41;;;;;;;0.90;0.73;;;;;;;9.58;68.76;94913.09;6130921;23;20258;-87
2023/04/02 03:11:13;;;;;;;0.67;0.67;;;;;;;9.57;68.37;94922.56;6130469;23;20163;-86
2023/04/02 03:13:46;;;;;;;0.60;0.60;;;;;;;9.63;68.41;94926.94;6132105;23;20186;-88
2023/04/02 03:16:18;;;;;;;0.97;0.67;;;;;;;9.61;68.59;94928.94;6130784;23;20224;-87
2023/04/02 03:18:51;;;;;;;0.67;0.50;;;;;;;9.63;68.15;94923.59;6130196;23;20199;-86
2023/04/02 03:21:26;;;;;;;0.60;0.60;;;;;;;9.60;68.36;94926.56;6130671;23;20160;-87
2023/04/02 03:23:57;;;;;;;1.00;0.60;;;;;;;9.49;68.84;94935.53;6131212;23;20159;-86
2023/04/02 03:26:30;;;;;;;0.87;0.70;;;;;;;9.52;68.87;94927.47;6131517;23;20629;-86
2023/04/02 03:29:01;;;;;;;0.70;0.60;;;;;;;9.52;68.87;94935.19;6129259;23;20709;-86
2023/04/02 03:31:32;;;;;;;1.63;0.80;;;;;;;9.53;68.71;94928.25;6131283;23;20175;-88
2023/04/02 03:34:05;;;;;;;1.70;0.80;;;;;;;9.50;69.14;94939.72;6130199;23;20220;-86
2023/04/02 03:36:37;;;;;;;0.80;0.60;;;;;;;9.46;69.16;94942.81;6129869;23;20526;-87
2023/04/02 03:39:14;;;;;;;0.60;0.60;;;;;;;9.43;69.25;94941.41;6129193;23;20203;-86
2023/04/02 03:41:44;;;;;;;0.60;0.60;;;;;;;9.56;68.80;94951.03;6129006;23;20614;-86
2023/04/02 03:44:21;;;;;;;0.80;0.80;;;;;;;9.65;68.23;94947.31;6126489;23;20191;-85
2023/04/02 03:46:56;;;;;;;1.07;0.97;;;;;;;9.61;68.58;94948.69;6126732;23;20164;-86
2023/04/02 03:49:31;;;;;;;1.43;0.60;;;;;;;9.61;68.34;94953.84;6126941;23;20206;-87
2023/04/02 03:52:05;;;;;;;0.60;0.60;;;;;;;9.59;68.70;94958.38;6127162;23;20163;-85
2023/04/02 03:54:32;;;;;;;0.63;0.63;;;;;;;9.59;68.51;94953.22;6126957;23;20160;-86
2023/04/02 03:56:59;;;;;;;1.17;0.80;;;;;;;9.57;68.31;94961.13;6127644;23;20367;-86
2023/04/02 03:59:35;;;;;;;0.50;0.50;;;;;;;9.57;68.85;94962.91;6127030;23;20191;-87
2023/04/02 04:02:15;;;;;;;0.60;0.60;;;;;;;9.65;68.43;94960.97;6127721;23;20670;-85
2023/04/02 04:04:44;;;;;;;2.17;0.60;;;;;;;9.67;67.99;94966.72;6129395;23;20183;-86
2023/04/02 04:07:18;;;;;;;0.60;0.60;;;;;;;9.65;68.14;94967.88;6131108;23;20185;-86
2023/04/02 04:09:46;;;;;;;0.77;0.60;;;;;;;9.67;67.70;94968.50;6129731;23;20203;-86
2023/04/02 04:12:24;;;;;;;0.67;0.60;;;;;;;9.61;68.40;94971.84;6129663;23;20179;-87
2023/04/02 04:14:55;;;;;;;1.50;1.40;;;;;;;9.61;67.92;94975.19;6129694;23;20174;-85
2023/04/02 04:17:28;;;;;;;1.50;1.10;;;;;;;9.64;68.59;94977.38;6129934;23;20164;-86
2023/04/02 04:20:01;;;;;;;1.47;0.70;;;;;;;9.66;68.27;94980.56;6129073;23;20199;-87
2023/04/02 04:22:31;;;;;;;0.80;0.70;;;;;;;9.57;68.11;94979.09;6129137;23;20239;-85
2023/04/02 04:24:59;;;;;;;0.60;0.60;;;;;;;9.49;68.43;94984.38;6129248;23;20175;-85
2023/04/02 04:27:33;;;;;;;0.97;0.77;;;;;;;9.51;68.30;94991.88;6128802;23;20180;-84
2023/04/02 04:30:04;;;;;;;0.60;0.60;;;;;;;9.46;68.50;94983.94;6129626;23;20599;-86
2023/04/02 04:32:35;;;;;;;1.00;0.70;;;;;;;9.46;68.70;94991.63;6129237;23;20179;-86
2023/04/02 04:35:08;;;;;;;0.60;0.60;;;;;;;9.44;68.69;94991.03;6129640;23;20232;-85
2023/04/02 04:37:39;;;;;;;0.70;0.70;;;;;;;9.44;68.55;94996.16;6128498;23;20168;-85
2023/04/02 04:40:12;;;;;;;0.77;0.60;;;;;;;9.48;68.67;95005.09;6128835;23;20201;-86
2023/04/02 04:42:42;;;;;;;0.60;0.57;;;;;;;9.47;68.78;95006.88;6127992;23;20198;-85
2023/04/02 04:45:19;;;;;;;0.93;0.70;;;;;;;9.38;68.82;95010.56;6128986;23;20163;-86
2023/04/02 04:47:51;;;;;;;0.73;0.67;;;;;;;9.43;68.77;95008.22;6128274;23;20500;-85
2023/04/02 04:50:31;;;;;;;0.73;0.60;;;;;;;9.38;68.78;95018.25;6130245;23;20199;-86
2023/04/02 04:53:04;;;;;;;0.87;0.60;;;;;;;9.44;68.68;95024.44;6129641;23;20244;-87
2023/04/02 04:55:37;;;;;;;0.77;0.70;;;;;;;9.42;68.83;95024.63;6129230;23;20476;-86
2023/04/02 04:58:11;;;;;;;0.73;0.60;;;;;;;9.41;68.80;95022.25;6127722;23;20167;-86
2023/04/02 05:00:44;;;;;;;0.60;0.60;;;;;;;9.44;68.78;95024.44;6128998;23;20163;-86
2023/04/02 05:03:20;;;;;;;0.60;0.53;;;;;;;9.39;68.66;95029.34;6128526;23;20163;-87
2023/04/02 05:05:50;;;;;;;0.50;0.50;;;;;;;9.40;68.59;95036.06;6129024;23;20183;-86
2023/04/02 05:08:21;;;;;;;0.50;0.50;;;;;;;9.43;68.93;95041.63;6129648;23;20235;-86
2023/04/02 05:10:59;;;;;;;0.60;0.60;;;;;;;9.35;68.99;95037.41;6130401;23;20160;-86
2023/04/02 05:13:33;;;;;;;0.70;0.70;;;;;;;9.34;69.01;95046.09;6131222;23;20164;-88
2023/04/02 05:16:10;;;;;;;3.23;0.70;;;;;;;9.44;69.20;95042.41;6128419;23;20207;-86
2023/04/02 05:18:44;;;;;;;0.60;0.60;;;;;;;9.52;68.71;95055.16;6130213;23;20270;-87
2023/04/02 05:21:25;;;;;;;0.70;0.70;;;;;;;9.46;69.00;95061.81;6131700;23;20603;-85
2023/04/02 05:24:00;;;;;;;0.67;0.67;;;;;;;9.45;68.82;95064.56;6131099;23;20178;-88
2023/04/02 05:26:32;;;;;;;1.13;0.60;;;;;;;9.50;68.57;95059.69;6131990;23;20238;-84
2023/04/02 05:29:09;;;;;;;0.67;0.67;;;;;;;9.50;68.52;95064.81;6130993;23;20200;-87
2023/04/02 05:31:43;;;;;;;0.80;0.70;;;;;;;9.53;68.56;95062.69;6132185;23;20219;-86
2023/04/02 05:34:22;;;;;;;0.67;0.60;;;;;;;9.52;68.67;95062.88;6131299;23;20676;-87
2023/04/02 05:36:53;;;;;;;1.07;0.70;;;;;;;9.48;68.78;95074.47;6133363;23;20542;-88
2023/04/02 05:39:25;;;;;;;0.60;0.60;;;;;;;9.45;68.90;95073.06;6133847;23;20215;-88
2023/04/02 05:42:06;;;;;;;1.10;0.60;;;;;;;9.44;68.71;95081.75;6134443;23;20160;-87
2023/04/02 05:44:39;;;;;;;0.70;0.70;;;;;;;9.34;69.07;95084.63;6134256;23;20583;-86
2023/04/02 05:47:13;;;;;;;0.80;0.70;;;;;;;9.40;69.07;95087.47;6133928;23;20172;-86
2023/04/02 05:49:44;;;;;;;0.60;0.60;;;;;;;9.44;68.98;95076.63;6133459;23;20199;-87
2023/04/02 05:52:18;;;;;;;0.90;0.73;;;;;;;9.46;68.85;95084.13;6134110;23;20259;-87
2023/04/02 05:54:52;;;;;;;2.83;0.70;;;;;;;9.46;69.11;95084.94;6134445;23;20163;-86
2023/04/02 05:57:22;;;;;;;0.83;0.77;;;;;;;9.41;69.16;95086.47;6134399;23;20183;-86
2023/04/02 05:59:54;;;;;;;0.70;0.70;;;;;;;9.35;69.06;95101.63;6132786;23;20685;-86
2023/04/02 06:02:25;;;;;;;0.70;0.67;;;;;;;9.40;69.15;95093.38;6133008;23;20164;-86
2023/04/02 06:04:56;;;;;;;0.70;0.70;;;;;;;9.39;69.33;95096.13;6134696;23;20230;-85
2023/04/02 06:07:30;;;;;;;1.03;0.70;;;;;;;9.41;69.03;95097.56;6133486;23;20160;-88
2023/04/02 06:10:09;;;;;;;1.23;0.70;;;;;;;9.40;69.03;95100.31;6133859;23;20285;-86
2023/04/02 06:12:44;;;;;;;0.80;0.80;;;;;;;9.37;69.75;95109.16;6133770;23;20170;-85
2023/04/02 06:15:13;;;;;;;0.70;0.70;;;;;;;9.35;69.28;95105.97;6134548;23;20163;-87
2023/04/02 06:17:50;;;;;;;1.33;0.63;;;;;;;9.35;69.20;95108.53;6133412;23;20230;-87
2023/04/02 06:20:23;;;;;;;0.77;0.70;;;;;;;9.40;69.03;95110.56;6134379;23;20199;-85
2023/04/02 06:22:55;;;;;;;1.13;0.80;;;;;;;9.37;69.35;95111.72;6133417;23;20160;-88
2023/04/02 06:25:26;;;;;;;1.07;0.97;;;;;;;9.39;69.31;95116.69;6133204;23;20187;-86
2023/04/02 06:27:55;;;;;;;1.23;0.73;;;;;;;9.37;69.33;95122.00;6133241;23;20183;-87
2023/04/02 06:30:30;;;;;;;1.97;0.70;;;;;;;9.34;69.81;95117.22;6134468;23;20204;-87
2023/04/02 06:32:57;;;;;;;0.93;0.60;;;;;;;9.28;69.73;95121.28;6132697;23;20170;-86
2023/04/02 06:35:24;;;;;;;0.97;0.63;;;;;;;9.32;69.71;95116.59;6132023;23;20172;-86
2023/04/02 06:37:56;;;;;;;1.67;0.80;;;;;;;9.28;70.07;95123.06;6132628;23;20225;-88
2023/04/02 06:40:39;;;;;;;0.90;0.80;;;;;;;9.27;70.27;95129.97;6131766;23;20216;-87
2023/04/02 06:43:17;;;;;;;1.43;1.00;;;;;;;9.20;70.33;95131.69;6131578;23;20199;-87
2023/04/02 06:45:49;;;;;;;1.80;0.93;;;;;;;9.32;70.20;95132.03;6132821;23;20215;-87
2023/04/02 06:48:19;;;;;;;2.00;0.90;;;;;;;9.41;69.65;95140.44;6132460;23;20811;-87
2023/04/02 06:50:49;;;;;;;2.13;0.80;;;;;;;9.48;69.72;95139.50;6132413;23;20164;-87
2023/04/02 06:53:21;;;;;;;0.80;0.70;;;;;;;9.55;69.35;95147.31;6133215;23;20176;-88
2023/04/02 06:55:52;;;;;;;1.57;0.90;;;;;;;9.53;69.77;95149.25;6132406;23;20634;-88
2023/04/02 06:58:20;;;;;;;1.63;0.80;;;;;;;9.58;69.34;95157.22;6132309;23;20200;-87
2023/04/02 07:00:48;;;;;;;2.37;0.80;;;;;;;9.63;69.04;95152.31;6131030;23;20179;-87
2023/04/02 07:03:16;;;;;;;1.03;0.70;;;;;;;9.58;69.58;95157.22;6132711;23;20211;-87
2023/04/02 07:05:43;;;;;;;1.10;0.70;;;;;;;9.64;69.41;95161.63;6133190;23;20179;-88
2023/04/02 07:08:10;;;;;;;1.53;0.90;;;;;;;9.65;69.51;95168.38;6132732;23;20175;-87
2023/04/02 07:10:40;;;;;;;1.57;0.90;;;;;;;9.76;69.22;95172.25;6131585;23;20200;-85
2023/04/02 07:13:07;;;;;;;2.37;0.87;;;;;;;9.77;68.83;95164.38;6131959;23;20160;-87
2023/04/02 07:15:33;;;;;;;0.97;0.80;;;;;;;9.78;68.92;95168.53;6132709;23;20499;-86
2023/04/02 07:18:00;;;;;;;0.97;0.80;;;;;;;9.81;69.27;95172.53;6130697;23;20179;-88
2023/04/02 07:20:29;;;;;;;1.47;0.70;;;;;;;9.85;69.03;95176.28;6132197;23;20540;-87
2023/04/02 07:22:56;;;;;;;1.43;1.07;;;;;;;9.84;69.23;95180.63;6131868;23;20421;-87
2023/04/02 07:25:22;;;;;;;0.73;0.73;;;;;;;9.76;68.93;95183.34;6131003;23;20183;-87
2023/04/02 07:27:51;;;;;;;0.73;0.70;;;;;;;9.78;69.39;95172.88;6131070;23;20186;-88
2023/04/02 07:30:17;;;;;;;1.70;0.90;;;;;;;9.83;69.24;95191.09;6131840;23;20207;-87
2023/04/02 07:32:46;;;;;;;0.93;0.90;;;;;;;9.87;69.40;95182.84;6131027;23;20650;-88
2023/04/02 07:35:13;;;;;;;1.90;0.87;;;;;;;9.85;69.07;95191.72;6132043;23;20552;-87
2023/04/02 07:37:39;;;;;;;2.93;1.00;;;;;;;9.85;69.55;95189.16;6131512;23;20186;-87
2023/04/02 07:40:15;;;;;;;3.07;1.00;;;;;;;10.05;69.28;95190.16;6131437;23;20195;-87
2023/04/02 07:42:41;;;;;;;0.80;0.77;;;;;;;10.13;69.18;95189.25;6131263;23;20247;-87
2023/04/02 07:45:10;;;;;;;1.40;1.10;;;;;;;10.16;68.51;95188.91;6131061;23;20219;-86
2023/04/02 07:47:40;;;;;;;2.57;0.70;;;;;;;10.22;68.61;95196.69;6130022;23;20182;-87
2023/04/02 07:50:08;;;;;;;1.00;0.90;;;;;;;10.25;68.82;95204.03;6130521;23;20199;-87
2023/04/02 07:52:38;;;;;;;1.70;0.93;;;;;;;10.32;68.70;95198.97;6131421;23;20198;-88
2023/04/02 07:55:05;;;;;;;1.83;0.93;;;;;;;10.31;68.45;95208.47;6130542;23;20183;-88
2023/04/02 07:57:40;;;;;;;1.40;0.83;;;;;;;10.28;68.27;95208.81;6127966;23;20179;-85
2023/04/02 08:00:11;;;;;;;1.17;1.00;;;;;;;10.25;68.50;95210.97;6127009;23;20214;-85
2023/04/02 08:02:37;;;;;;;0.77;0.77;;;;;;;10.20;68.65;95221.78;6127769;23;20164;-87
2023/04/02 08:05:04;;;;;;;1.40;0.77;;;;;;;10.31;68.82;95223.09;6127360;23;20202;-86
2023/04/02 08:07:30;;;;;;;1.53;0.90;;;;;;;10.40;68.79;95227.13;6126962;23;20179;-85
2023/04/02 08:09:57;;;;;;;1.13;0.90;;;;;;;10.50;68.11;95225.06;6126258;23;20203;-85
2023/04/02 08:12:23;;;;;;;0.73;0.73;;;;;;;10.51;67.84;95224.09;6126554;23;20545;-84
2023/04/02 08:14:50;;;;;;;1.50;1.00;;;;;;;10.51;67.41;95228.44;6126999;23;20179;-85
2023/04/02 08:17:18;;;;;;;0.97;0.80;;;;;;;10.57;67.45;95232.84;6126076;23;20811;-87
2023/04/02 08:19:44;;;;;;;1.07;0.93;;;;;;;10.63;67.54;95229.53;6120155;23;20202;-84
2023/04/02 08:22:11;;;;;;;0.80;0.80;;;;;;;10.59;68.51;95231.66;6122571;23;20330;-85
2023/04/02 08:24:37;;;;;;;1.20;0.93;;;;;;;10.56;67.71;95237.22;6124012;23;20174;-85
2023/04/02 08:27:03;;;;;;;2.33;1.00;;;;;;;10.59;68.04;95238.59;6124739;23;20182;-86
2023/04/02 08:29:31;;;;;;;1.60;0.90;;;;;;;10.67;67.48;95246.19;6123698;23;20199;-85
2023/04/02 08:31:58;;;;;;;1.43;0.90;;;;;;;10.64;67.56;95246.56;6124050;23;20180;-87
2023/04/02 08:34:26;;;;;;;1.00;0.90;;;;;;;10.65;67.84;95237.84;6124620;23;20180;-85
2023/04/02 08:36:57;;;;;;;2.30;1.27;;;;;;;10.64;67.33;95244.78;6125115;23;20184;-87
2023/04/02 08:39:25;;;;;;;0.93;0.80;;;;;;;10.64;67.57;95246.56;6124892;23;20192;-86
2023/04/02 08:42:01;;;;;;;0.83;0.80;;;;;;;10.67;67.54;95249.56;6126301;23;20187;-86
2023/04/02 08:44:44;;;;;;;1.33;0.90;;;;;;;10.73;66.95;95250.63;6124175;23;20681;-86
2023/04/02 08:47:14;;;;;;;3.03;0.90;;;;;;;10.66;68.16;95249.75;6126480;23;20607;-85
2023/04/02 08:49:48;;;;;;;0.70;0.70;;;;;;;10.83;68.17;95255.44;6125897;23;20200;-86
2023/04/02 08:52:22;;;;;;;1.00;0.90;;;;;;;10.86;66.67;95250.72;6127706;23;20167;-85
2023/04/02 08:54:50;;;;;;;6.03;5.20;;;;;;;10.98;66.52;95245.84;6126522;23;20186;-85
2023/04/02 08:57:25;;;;;;;1.40;1.30;;;;;;;11.11;66.85;95261.41;6125822;23;20579;-85
2023/04/02 08:59:59;;;;;;;0.87;0.87;;;;;;;11.21;66.35;95264.44;6126129;23;20202;-86
2023/04/02 09:02:31;;;;;;;2.37;1.10;;;;;;;11.22;65.99;95255.72;6126633;23;20194;-87
2023/04/02 09:05:02;;;;;;;2.90;0.90;;;;;;;11.37;65.69;95260.78;6128512;23;20168;-85
2023/04/02 09:07:28;;;;;;;1.07;0.90;;;;;;;11.52;65.84;95268.41;6128625;23;20207;-86
2023/04/02 09:09:57;;;;;;;1.30;0.83;;;;;;;11.61;64.66;95270.63;6127661;23;20218;-87
2023/04/02 09:12:26;;;;;;;1.70;0.80;;;;;;;11.60;64.73;95268.25;6126581;23;20210;-88
2023/04/02 09:15:05;;;;;;;1.40;0.80;;;;;;;11.64;63.96;95262.53;6126961;23;20190;-85
2023/04/02 09:17:32;;;;;;;1.40;0.90;;;;;;;11.76;64.18;95271.34;6126852;23;20221;-86
2023/04/02 09:20:07;;;;;;;14.07;12.23;;;;;;;11.99;63.89;95278.00;6125330;23;20770;-85
2023/04/02 09:22:40;;;;;;;2.60;2.30;;;;;;;12.03;62.93;95274.84;6126677;23;20165;-84
2023/04/02 09:25:13;;;;;;;1.17;0.87;;;;;;;12.21;62.26;95273.50;6126889;23;20175;-87
2023/04/02 09:27:40;;;;;;;1.00;0.80;;;;;;;12.23;62.02;95285.25;6126450;23;20164;-86
2023/04/02 09:30:20;;;;;;;1.37;0.80;;;;;;;12.33;61.44;95280.50;6126876;23;20210;-86
2023/04/02 09:32:49;;;;;;;1.27;0.80;;;;;;;12.31;61.81;95282.50;6127143;23;20163;-85
2023/04/02 09:35:20;;;;;;;2.70;0.90;;;;;;;12.41;61.31;95285.50;6125973;23;20573;-87
2023/04/02 09:37:48;;;;;;;2.00;1.20;;;;;;;12.55;60.53;95291.47;6126246;23;20176;-86
2023/04/02 09:40:26;;;;;;;3.60;0.77;;;;;;;12.66;60.33;95306.41;6128471;23;20278;-86
2023/04/02 09:43:14;;;;;;;2.63;1.00;;;;;;;12.77;60.16;95298.06;6126385;23;20239;-86
2023/04/02 09:45:42;;;;;;;1.30;1.20;;;;;;;12.91;59.50;95295.50;6127516;23;20168;-85
2023/04/02 09:48:24;;;;;;;1.10;0.67;;;;;;;12.85;58.98;95296.31;6127046;23;20171;-88
2023/04/02 09:51:05;;;;;;;3.07;0.80;;;;;;;12.77;59.34;95302.44;6130148;23;20200;-86
2023/04/02 09:53:36;;;;;;;4.73;3.97;;;;;;;12.61;60.00;95292.47;6129888;23;20633;-86
2023/04/02 09:56:13;;;;;;;7.23;4.63;;;;;;;12.56;59.70;95302.59;6128192;23;20188;-86
2023/04/02 09:58:40;;;;;;;1.37;0.90;;;;;;;12.48;60.65;95298.44;6129550;23;20205;-86
2023/04/02 10:01:29;;;;;;;1.13;0.80;;;;;;;12.36;61.57;95305.91;6127030;23;20712;-86
2023/04/02 10:03:57;;;;;;;1.13;0.70;;;;;;;12.37;61.06;95299.75;6128768;23;20160;-87
2023/04/02 10:06:27;;;;;;;0.80;0.80;;;;;;;12.25;61.06;95313.44;6123690;23;20179;-86
2023/04/02 10:08:54;;;;;;;1.83;1.00;;;;;;;12.12;62.05;95315.97;6123901;23;20202;-86
2023/04/02 10:11:26;;;;;;;1.03;0.80;;;;;;;12.18;61.66;95310.81;6123745;23;20732;-86
2023/04/02 10:13:57;;;;;;;1.67;1.10;;;;;;;12.15;62.17;95311.19;6125611;23;20197;-88
2023/04/02 10:16:31;;;;;;;1.40;0.80;;;;;;;12.19;61.30;95309.84;6123797;23;20168;-87
2023/04/02 10:19:00;;;;;;;1.27;0.80;;;;;;;12.20;62.19;95318.38;6123981;23;20281;-86
2023/04/02 10:21:33;;;;;;;1.07;0.83;;;;;;;12.12;62.40;95314.19;6125194;23;20489;-86
2023/04/02 10:24:01;;;;;;;2.27;0.90;;;;;;;12.10;62.62;95311.81;6125024;23;20168;-88
2023/04/02 10:26:43;;;;;;;1.27;0.70;;;;;;;12.24;61.05;95317.81;6127160;23;20179;-87
2023/04/02 10:29:19;;;;;;;1.50;0.70;;;;;;;12.33;60.77;95315.84;6126947;23;20612;-87
2023/04/02 10:31:58;;;;;;;0.60;0.60;;;;;;;12.33;60.15;95308.88;6128535;23;20239;-86
2023/04/02 10:34:34;;;;;;;0.70;0.70;;;;;;;12.79;60.17;95313.38;6126808;23;20160;-86
2023/04/02 10:37:12;;;;;;;0.63;0.63;;;;;;;13.39;57.90;95317.59;6130105;23;20163;-88
2023/04/02 10:39:43;;;;;;;1.03;0.60;;;;;;;13.56;55.54;95307.63;6132231;23;20201;-88
2023/04/02 10:42:16;;;;;;;0.60;0.60;;;;;;;13.61;55.71;95297.50;6125901;23;20168;-87
2023/04/02 10:44:54;;;;;;;0.60;0.60;;;;;;;13.59;56.00;95309.81;6127523;23;20187;-86
2023/04/02 10:47:33;;;;;;;0.60;0.60;;;;;;;13.52;56.23;95314.19;6132071;23;20263;-88
2023/04/02 10:50:15;;;;;;;1.90;0.70;;;;;;;13.49;56.90;95306.84;6133047;23;20211;-87
2023/04/02 10:52:48;;;;;;;0.70;0.70;;;;;;;13.45;57.10;95308.25;6131716;23;20166;-87
2023/04/02 10:55:18;;;;;;;0.93;0.70;;;;;;;13.43;56.69;95318.81;6132696;23;20160;-87
2023/04/02 10:57:48;;;;;;;0.60;0.60;;;;;;;13.37;57.20;95329.94;6132204;23;20171;-86
2023/04/02 11:00:19;;;;;;;21.17;16.70;;;;;;;13.21;57.07;95332.13;6130472;23;20206;-87
2023/04/02 11:02:50;;;;;;;4.77;3.80;;;;;;;13.11;57.10;95333.28;6125199;23;20164;-87
2023/04/02 11:05:22;;;;;;;0.70;0.70;;;;;;;12.96;56.96;95337.03;6127111;23;20160;-85
2023/04/02 11:07:59;;;;;;;0.70;0.70;;;;;;;12.94;57.96;95328.69;6126276;23;20167;-86
2023/04/02 11:10:30;;;;;;;0.67;0.67;;;;;;;12.88;58.19;95335.47;6129338;23;20254;-86
2023/04/02 11:13:02;;;;;;;0.63;0.63;;;;;;;12.84;58.43;95339.44;6123157;23;20242;-87
2023/04/02 11:15:37;;;;;;;1.27;1.00;;;;;;;12.79;58.31;95340.00;6127163;23;20227;-88
2023/04/02 11:18:19;;;;;;;0.70;0.70;;;;;;;12.78;58.56;95341.00;6126874;23;20230;-87
2023/04/02 11:21:05;;;;;;;1.90;0.80;;;;;;;12.71;59.22;95337.59;6129244;23;20156;-88
2023/04/02 11:23:39;;;;;;;0.90;0.80;;;;;;;12.60;59.94;95342.53;6128472;23;20187;-87
2023/04/02 11:26:36;;;;;;;0.70;0.70;;;;;;;12.59;60.51;95348.69;6127675;23;20183;-86
2023/04/02 11:29:16;;;;;;;1.33;0.80;;;;;;;12.72;59.76;95346.13;6124424;23;20270;-86
2023/04/02 11:31:45;;;;;;;0.77;0.77;;;;;;;12.78;60.17;95348.75;6127920;23;20278;-86
2023/04/02 11:34:36;;;;;;;0.70;0.70;;;;;;;12.89;59.24;95355.16;6127356;23;20180;-87
2023/04/02 11:37:09;;;;;;;0.80;0.80;;;;;;;12.86;59.68;95358.13;6127154;23;20246;-86
2023/04/02 11:39:54;;;;;;;1.17;0.90;;;;;;;12.75;61.23;95356.88;6127195;23;20206;-87
2023/04/02 11:42:39;;;;;;;1.60;1.37;;;;;;;12.73;63.48;95360.66;6128991;23;20175;-87
2023/04/02 11:45:43;;;;;;;1.63;1.47;;;;;;;12.79;64.05;95359.88;6128386;23;20194;-86
2023/04/02 11:48:27;;;;;;;1.93;1.07;;;;;;;12.94;64.54;95363.09;6128470;23;20180;-86
2023/04/02 11:50:53;;;;;;;0.87;0.87;;;;;;;13.05;64.71;95366.91;6129282;23;20187;-86
2023/04/02 11:53:21;;;;;;;1.03;0.93;;;;;;;13.31;63.48;95364.34;6127621;23;20183;-87
2023/04/02 11:56:07;;;;;;;3.80;2.97;;;;;;;13.76;61.11;95362.75;6128891;23;20175;-87
2023/04/02 11:58:54;;;;;;;19.60;17.47;;;;;;;14.01;59.83;95359.50;6128212;23;20203;-87
2023/04/02 12:01:44;;;;;;;1.77;1.40;;;;;;;13.95;57.58;95345.59;6128655;23;20163;-86
2023/04/02 12:04:32;;;;;;;1.30;1.20;;;;;;;13.92;58.76;95363.31;6126850;23;20164;-88
2023/04/02 12:07:25;;;;;;;1.00;0.90;;;;;;;13.89;57.66;95359.31;6094492;23;20183;-88